sensor_id;sensor_type;location;lat;lon;timestamp;P1;durP1;ratioP1;P2;durP2;ratioP2
68987;SDS011;56038;46.080;11.116;2024-03-06T00:02:43;0.82;;;0.77;;
68987;SDS011;56038;46.080;11.116;2024-03-06T00:07:46;0.50;;;0.50;;
68987;SDS011;56038;46.080;11.116;2024-03-06T00:12:48;0.52;;;0.40;;
68987;SDS011;56038;46.080;11.116;2024-03-06T00:17:50;0.50;;;0.50;;
68987;SDS011;56038;46.080;11.116;2024-03-06T00:22:53;0.57;;;0.40;;
68987;SDS011;56038;46.080;11.116;2024-03-06T00:27:56;0.95;;;0.43;;
68987;SDS011;56038;46.080;11.116;2024-03-06T00:32:57;0.77;;;0.50;;
68987;SDS011;56038;46.080;11.116;2024-03-06T00:38:00;0.52;;;0.50;;
68987;SDS011;56038;46.080;11.116;2024-03-06T00:43:03;1.05;;;0.50;;
68987;SDS011;56038;46.080;11.116;2024-03-06T00:48:05;1.17;;;0.50;;
68987;SDS011;56038;46.080;11.116;2024-03-06T00:53:09;0.30;;;0.30;;
68987;SDS011;56038;46.080;11.116;2024-03-06T00:58:11;0.77;;;0.50;;
68987;SDS011;56038;46.080;11.116;2024-03-06T01:03:13;0.38;;;0.38;;
68987;SDS011;56038;46.080;11.116;2024-03-06T01:08:16;3.33;;;0.50;;
68987;SDS011;56038;46.080;11.116;2024-03-06T01:13:18;0.22;;;0.22;;
68987;SDS011;56038;46.080;11.116;2024-03-06T01:18:20;0.60;;;0.57;;
68987;SDS011;56038;46.080;11.116;2024-03-06T01:23:23;0.80;;;0.30;;
68987;SDS011;56038;46.080;11.116;2024-03-06T01:28:25;0.43;;;0.32;;
68987;SDS011;56038;46.080;11.116;2024-03-06T01:33:27;0.32;;;0.30;;
68987;SDS011;56038;46.080;11.116;2024-03-06T01:38:30;2.00;;;0.30;;
68987;SDS011;56038;46.080;11.116;2024-03-06T01:43:36;0.75;;;0.38;;
68987;SDS011;56038;46.080;11.116;2024-03-06T01:48:38;0.20;;;0.20;;
68987;SDS011;56038;46.080;11.116;2024-03-06T01:53:44;0.25;;;0.20;;
68987;SDS011;56038;46.080;11.116;2024-03-06T01:58:46;0.38;;;0.30;;
68987;SDS011;56038;46.080;11.116;2024-03-06T02:03:48;0.52;;;0.22;;
68987;SDS011;56038;46.080;11.116;2024-03-06T02:08:52;0.10;;;0.10;;
68987;SDS011;56038;46.080;11.116;2024-03-06T02:13:53;0.10;;;0.10;;
68987;SDS011;56038;46.080;11.116;2024-03-06T02:18:55;0.00;;;0.00;;
68987;SDS011;56038;46.080;11.116;2024-03-06T02:23:59;0.10;;;0.10;;
68987;SDS011;56038;46.080;11.116;2024-03-06T02:29:01;0.15;;;0.13;;
68987;SDS011;56038;46.080;11.116;2024-03-06T02:34:05;0.10;;;0.10;;
68987;SDS011;56038;46.080;11.116;2024-03-06T02:39:09;0.20;;;0.20;;
68987;SDS011;56038;46.080;11.116;2024-03-06T02:44:10;0.13;;;0.13;;
68987;SDS011;56038;46.080;11.116;2024-03-06T02:49:12;0.15;;;0.13;;
68987;SDS011;56038;46.080;11.116;2024-03-06T02:54:16;0.00;;;0.00;;
68987;SDS011;56038;46.080;11.116;2024-03-06T02:59:18;0.10;;;0.10;;
68987;SDS011;56038;46.080;11.116;2024-03-06T03:04:20;0.05;;;0.00;;
68987;SDS011;56038;46.080;11.116;2024-03-06T03:09:23;0.15;;;0.10;;
68987;SDS011;56038;46.080;11.116;2024-03-06T03:14:25;0.10;;;0.10;;
68987;SDS011;56038;46.080;11.116;2024-03-06T03:19:27;0.03;;;0.03;;
68987;SDS011;56038;46.080;11.116;2024-03-06T03:24:30;0.22;;;0.10;;
68987;SDS011;56038;46.080;11.116;2024-03-06T03:29:32;0.10;;;0.10;;
68987;SDS011;56038;46.080;11.116;2024-03-06T03:34:34;0.10;;;0.10;;
68987;SDS011;56038;46.080;11.116;2024-03-06T03:39:37;0.10;;;0.10;;
68987;SDS011;56038;46.080;11.116;2024-03-06T03:44:39;0.13;;;0.13;;
68987;SDS011;56038;46.080;11.116;2024-03-06T03:49:41;0.10;;;0.10;;
68987;SDS011;56038;46.080;11.116;2024-03-06T03:54:44;0.10;;;0.10;;
68987;SDS011;56038;46.080;11.116;2024-03-06T03:59:46;0.08;;;0.08;;
68987;SDS011;56038;46.080;11.116;2024-03-06T04:04:48;0.10;;;0.10;;
68987;SDS011;56038;46.080;11.116;2024-03-06T04:09:51;0.45;;;0.10;;
68987;SDS011;56038;46.080;11.116;2024-03-06T04:14:52;0.15;;;0.15;;
68987;SDS011;56038;46.080;11.116;2024-03-06T04:19:54;0.15;;;0.13;;
68987;SDS011;56038;46.080;11.116;2024-03-06T04:24:58;0.20;;;0.20;;
68987;SDS011;56038;46.080;11.116;2024-03-06T04:29:59;0.10;;;0.10;;
68987;SDS011;56038;46.080;11.116;2024-03-06T04:35:01;0.10;;;0.10;;
68987;SDS011;56038;46.080;11.116;2024-03-06T04:40:05;0.90;;;0.10;;
68987;SDS011;56038;46.080;11.116;2024-03-06T04:45:09;0.08;;;0.08;;
68987;SDS011;56038;46.080;11.116;2024-03-06T04:50:12;0.08;;;0.08;;
68987;SDS011;56038;46.080;11.116;2024-03-06T04:55:17;0.10;;;0.10;;
68987;SDS011;56038;46.080;11.116;2024-03-06T05:00:22;0.43;;;0.20;;
68987;SDS011;56038;46.080;11.116;2024-03-06T05:05:24;0.10;;;0.10;;
68987;SDS011;56038;46.080;11.116;2024-03-06T05:10:28;0.52;;;0.10;;
68987;SDS011;56038;46.080;11.116;2024-03-06T05:15:30;0.50;;;0.30;;
68987;SDS011;56038;46.080;11.116;2024-03-06T05:20:32;0.10;;;0.10;;
68987;SDS011;56038;46.080;11.116;2024-03-06T05:25:35;0.63;;;0.25;;
68987;SDS011;56038;46.080;11.116;2024-03-06T05:30:36;0.30;;;0.20;;
68987;SDS011;56038;46.080;11.116;2024-03-06T05:35:39;0.20;;;0.20;;
68987;SDS011;56038;46.080;11.116;2024-03-06T05:40:42;0.20;;;0.10;;
68987;SDS011;56038;46.080;11.116;2024-03-06T05:45:45;0.20;;;0.20;;
68987;SDS011;56038;46.080;11.116;2024-03-06T05:50:48;0.30;;;0.30;;
68987;SDS011;56038;46.080;11.116;2024-03-06T05:55:51;0.70;;;0.30;;
68987;SDS011;56038;46.080;11.116;2024-03-06T06:00:53;1.33;;;0.50;;
68987;SDS011;56038;46.080;11.116;2024-03-06T06:05:55;0.28;;;0.28;;
68987;SDS011;56038;46.080;11.116;2024-03-06T06:10:58;0.43;;;0.30;;
68987;SDS011;56038;46.080;11.116;2024-03-06T06:16:00;0.20;;;0.20;;
68987;SDS011;56038;46.080;11.116;2024-03-06T06:21:02;1.60;;;0.28;;
68987;SDS011;56038;46.080;11.116;2024-03-06T06:26:08;0.20;;;0.20;;
68987;SDS011;56038;46.080;11.116;2024-03-06T06:31:10;0.40;;;0.40;;
68987;SDS011;56038;46.080;11.116;2024-03-06T06:36:12;0.60;;;0.60;;
68987;SDS011;56038;46.080;11.116;2024-03-06T06:41:16;0.60;;;0.60;;
68987;SDS011;56038;46.080;11.116;2024-03-06T06:46:19;0.60;;;0.60;;
68987;SDS011;56038;46.080;11.116;2024-03-06T06:51:21;0.93;;;0.57;;
68987;SDS011;56038;46.080;11.116;2024-03-06T06:56:25;0.30;;;0.30;;
68987;SDS011;56038;46.080;11.116;2024-03-06T07:01:26;0.28;;;0.28;;
68987;SDS011;56038;46.080;11.116;2024-03-06T07:06:28;0.68;;;0.52;;
68987;SDS011;56038;46.080;11.116;2024-03-06T07:11:31;0.45;;;0.43;;
68987;SDS011;56038;46.080;11.116;2024-03-06T07:16:33;0.30;;;0.30;;
68987;SDS011;56038;46.080;11.116;2024-03-06T07:21:35;0.55;;;0.40;;
68987;SDS011;56038;46.080;11.116;2024-03-06T07:26:39;1.25;;;0.88;;
68987;SDS011;56038;46.080;11.116;2024-03-06T07:31:40;0.40;;;0.40;;
68987;SDS011;56038;46.080;11.116;2024-03-06T07:36:42;1.13;;;0.75;;
68987;SDS011;56038;46.080;11.116;2024-03-06T07:41:47;3.17;;;1.58;;
68987;SDS011;56038;46.080;11.116;2024-03-06T07:46:49;0.70;;;0.70;;
68987;SDS011;56038;46.080;11.116;2024-03-06T07:51:51;0.93;;;0.52;;
68987;SDS011;56038;46.080;11.116;2024-03-06T07:56:55;0.40;;;0.40;;
68987;SDS011;56038;46.080;11.116;2024-03-06T08:01:56;0.30;;;0.30;;
68987;SDS011;56038;46.080;11.116;2024-03-06T08:06:58;1.58;;;0.50;;
68987;SDS011;56038;46.080;11.116;2024-03-06T08:12:01;0.40;;;0.40;;
68987;SDS011;56038;46.080;11.116;2024-03-06T08:17:03;1.15;;;0.43;;
68987;SDS011;56038;46.080;11.116;2024-03-06T08:22:04;0.52;;;0.40;;
68987;SDS011;56038;46.080;11.116;2024-03-06T08:27:07;2.92;;;1.40;;
68987;SDS011;56038;46.080;11.116;2024-03-06T08:32:09;0.47;;;0.47;;
68987;SDS011;56038;46.080;11.116;2024-03-06T08:37:11;0.80;;;0.60;;
68987;SDS011;56038;46.080;11.116;2024-03-06T08:42:14;0.40;;;0.40;;
68987;SDS011;56038;46.080;11.116;2024-03-06T08:47:18;0.70;;;0.50;;
68987;SDS011;56038;46.080;11.116;2024-03-06T08:52:20;0.50;;;0.32;;
68987;SDS011;56038;46.080;11.116;2024-03-06T08:57:23;0.30;;;0.30;;
68987;SDS011;56038;46.080;11.116;2024-03-06T09:02:28;0.52;;;0.50;;
68987;SDS011;56038;46.080;11.116;2024-03-06T09:07:29;1.02;;;0.70;;
68987;SDS011;56038;46.080;11.116;2024-03-06T09:12:33;0.40;;;0.40;;
68987;SDS011;56038;46.080;11.116;2024-03-06T09:17:34;0.43;;;0.43;;
68987;SDS011;56038;46.080;11.116;2024-03-06T09:22:36;0.65;;;0.50;;
68987;SDS011;56038;46.080;11.116;2024-03-06T09:27:39;0.52;;;0.50;;
68987;SDS011;56038;46.080;11.116;2024-03-06T09:32:42;0.80;;;0.80;;
68987;SDS011;56038;46.080;11.116;2024-03-06T09:37:45;1.40;;;0.50;;
68987;SDS011;56038;46.080;11.116;2024-03-06T09:42:49;0.85;;;0.50;;
68987;SDS011;56038;46.080;11.116;2024-03-06T09:47:51;0.40;;;0.40;;
68987;SDS011;56038;46.080;11.116;2024-03-06T09:52:53;3.22;;;0.43;;
68987;SDS011;56038;46.080;11.116;2024-03-06T09:57:58;0.50;;;0.50;;
68987;SDS011;56038;46.080;11.116;2024-03-06T10:02:59;0.50;;;0.50;;
68987;SDS011;56038;46.080;11.116;2024-03-06T10:08:01;0.32;;;0.30;;
68987;SDS011;56038;46.080;11.116;2024-03-06T10:13:05;0.40;;;0.40;;
68987;SDS011;56038;46.080;11.116;2024-03-06T10:18:10;0.40;;;0.32;;
68987;SDS011;56038;46.080;11.116;2024-03-06T10:23:13;1.75;;;0.50;;
68987;SDS011;56038;46.080;11.116;2024-03-06T10:28:19;0.50;;;0.47;;
68987;SDS011;56038;46.080;11.116;2024-03-06T10:33:22;0.30;;;0.30;;
68987;SDS011;56038;46.080;11.116;2024-03-06T10:38:24;0.40;;;0.40;;
68987;SDS011;56038;46.080;11.116;2024-03-06T10:43:31;0.50;;;0.50;;
68987;SDS011;56038;46.080;11.116;2024-03-06T10:48:35;0.43;;;0.30;;
68987;SDS011;56038;46.080;11.116;2024-03-06T10:53:38;0.40;;;0.40;;
68987;SDS011;56038;46.080;11.116;2024-03-06T10:58:42;0.65;;;0.65;;
68987;SDS011;56038;46.080;11.116;2024-03-06T11:03:46;0.30;;;0.23;;
68987;SDS011;56038;46.080;11.116;2024-03-06T11:08:49;0.40;;;0.40;;
68987;SDS011;56038;46.080;11.116;2024-03-06T11:13:55;0.30;;;0.30;;
68987;SDS011;56038;46.080;11.116;2024-03-06T11:19:07;0.65;;;0.32;;
68987;SDS011;56038;46.080;11.116;2024-03-06T11:24:13;0.30;;;0.30;;
68987;SDS011;56038;46.080;11.116;2024-03-06T11:29:20;0.20;;;0.20;;
68987;SDS011;56038;46.080;11.116;2024-03-06T11:34:22;0.20;;;0.20;;
68987;SDS011;56038;46.080;11.116;2024-03-06T11:39:27;0.30;;;0.30;;
68987;SDS011;56038;46.080;11.116;2024-03-06T11:44:32;1.13;;;0.40;;
68987;SDS011;56038;46.080;11.116;2024-03-06T11:49:34;1.77;;;0.30;;
68987;SDS011;56038;46.080;11.116;2024-03-06T11:54:37;0.52;;;0.52;;
68987;SDS011;56038;46.080;11.116;2024-03-06T11:59:40;0.57;;;0.40;;
68987;SDS011;56038;46.080;11.116;2024-03-06T12:04:42;0.45;;;0.40;;
68987;SDS011;56038;46.080;11.116;2024-03-06T12:09:44;0.63;;;0.50;;
68987;SDS011;56038;46.080;11.116;2024-03-06T12:14:56;1.17;;;0.38;;
68987;SDS011;56038;46.080;11.116;2024-03-06T12:19:59;0.40;;;0.40;;
68987;SDS011;56038;46.080;11.116;2024-03-06T12:25:02;0.68;;;0.35;;
68987;SDS011;56038;46.080;11.116;2024-03-06T12:30:09;0.80;;;0.40;;
68987;SDS011;56038;46.080;11.116;2024-03-06T12:35:13;0.50;;;0.45;;
68987;SDS011;56038;46.080;11.116;2024-03-06T12:40:25;0.45;;;0.45;;
68987;SDS011;56038;46.080;11.116;2024-03-06T12:45:29;0.35;;;0.30;;
68987;SDS011;56038;46.080;11.116;2024-03-06T12:50:31;1.02;;;0.43;;
68987;SDS011;56038;46.080;11.116;2024-03-06T12:55:33;0.68;;;0.40;;
68987;SDS011;56038;46.080;11.116;2024-03-06T13:00:37;0.40;;;0.30;;
68987;SDS011;56038;46.080;11.116;2024-03-06T13:05:38;1.15;;;0.40;;
68987;SDS011;56038;46.080;11.116;2024-03-06T13:10:40;7.55;;;5.03;;
68987;SDS011;56038;46.080;11.116;2024-03-06T13:15:43;2.40;;;1.42;;
68987;SDS011;56038;46.080;11.116;2024-03-06T13:20:48;0.80;;;0.43;;
68987;SDS011;56038;46.080;11.116;2024-03-06T13:25:50;0.32;;;0.20;;
68987;SDS011;56038;46.080;11.116;2024-03-06T13:30:53;6.10;;;1.77;;
68987;SDS011;56038;46.080;11.116;2024-03-06T13:35:54;2.00;;;1.17;;
68987;SDS011;56038;46.080;11.116;2024-03-06T13:40:56;2.30;;;0.30;;
68987;SDS011;56038;46.080;11.116;2024-03-06T13:45:59;0.43;;;0.38;;
68987;SDS011;56038;46.080;11.116;2024-03-06T13:51:02;1.70;;;0.50;;
68987;SDS011;56038;46.080;11.116;2024-03-06T13:56:04;0.50;;;0.50;;
68987;SDS011;56038;46.080;11.116;2024-03-06T14:01:08;0.30;;;0.30;;
68987;SDS011;56038;46.080;11.116;2024-03-06T14:06:10;0.30;;;0.30;;
68987;SDS011;56038;46.080;11.116;2024-03-06T14:11:11;0.40;;;0.30;;
68987;SDS011;56038;46.080;11.116;2024-03-06T14:16:14;2.20;;;0.30;;
68987;SDS011;56038;46.080;11.116;2024-03-06T14:21:16;0.95;;;0.28;;
68987;SDS011;56038;46.080;11.116;2024-03-06T14:26:18;0.40;;;0.35;;
68987;SDS011;56038;46.080;11.116;2024-03-06T14:31:21;0.20;;;0.20;;
68987;SDS011;56038;46.080;11.116;2024-03-06T14:36:23;1.27;;;0.50;;
68987;SDS011;56038;46.080;11.116;2024-03-06T14:41:25;1.50;;;0.47;;
68987;SDS011;56038;46.080;11.116;2024-03-06T14:46:28;0.80;;;0.73;;
68987;SDS011;56038;46.080;11.116;2024-03-06T14:51:30;0.75;;;0.57;;
68987;SDS011;56038;46.080;11.116;2024-03-06T14:56:32;0.40;;;0.40;;
68987;SDS011;56038;46.080;11.116;2024-03-06T15:01:35;0.93;;;0.60;;
68987;SDS011;56038;46.080;11.116;2024-03-06T15:06:37;1.10;;;0.52;;
68987;SDS011;56038;46.080;11.116;2024-03-06T15:11:39;1.20;;;0.47;;
68987;SDS011;56038;46.080;11.116;2024-03-06T15:16:42;0.30;;;0.30;;
68987;SDS011;56038;46.080;11.116;2024-03-06T15:21:44;0.52;;;0.50;;
68987;SDS011;56038;46.080;11.116;2024-03-06T15:26:47;0.40;;;0.40;;
68987;SDS011;56038;46.080;11.116;2024-03-06T15:31:50;0.63;;;0.52;;
68987;SDS011;56038;46.080;11.116;2024-03-06T15:36:51;0.40;;;0.35;;
68987;SDS011;56038;46.080;11.116;2024-03-06T15:41:53;0.50;;;0.50;;
68987;SDS011;56038;46.080;11.116;2024-03-06T15:46:58;1.30;;;0.75;;
68987;SDS011;56038;46.080;11.116;2024-03-06T15:52:00;0.55;;;0.55;;
68987;SDS011;56038;46.080;11.116;2024-03-06T15:57:01;1.52;;;0.65;;
68987;SDS011;56038;46.080;11.116;2024-03-06T16:02:05;0.80;;;0.70;;
68987;SDS011;56038;46.080;11.116;2024-03-06T16:07:07;1.73;;;0.60;;
68987;SDS011;56038;46.080;11.116;2024-03-06T16:12:09;1.27;;;0.50;;
68987;SDS011;56038;46.080;11.116;2024-03-06T16:17:12;0.60;;;0.60;;
68987;SDS011;56038;46.080;11.116;2024-03-06T16:22:14;0.85;;;0.73;;
68987;SDS011;56038;46.080;11.116;2024-03-06T16:27:16;0.95;;;0.60;;
68987;SDS011;56038;46.080;11.116;2024-03-06T16:32:19;0.77;;;0.70;;
68987;SDS011;56038;46.080;11.116;2024-03-06T16:37:21;0.68;;;0.65;;
68987;SDS011;56038;46.080;11.116;2024-03-06T16:42:23;1.42;;;0.40;;
68987;SDS011;56038;46.080;11.116;2024-03-06T16:47:26;2.15;;;0.70;;
68987;SDS011;56038;46.080;11.116;2024-03-06T16:52:27;1.23;;;0.73;;
68987;SDS011;56038;46.080;11.116;2024-03-06T16:57:29;1.48;;;0.80;;
68987;SDS011;56038;46.080;11.116;2024-03-06T17:02:32;5.18;;;3.85;;
68987;SDS011;56038;46.080;11.116;2024-03-06T17:07:34;1.67;;;1.00;;
68987;SDS011;56038;46.080;11.116;2024-03-06T17:12:35;1.30;;;0.98;;
68987;SDS011;56038;46.080;11.116;2024-03-06T17:17:38;1.13;;;0.80;;
68987;SDS011;56038;46.080;11.116;2024-03-06T17:22:40;0.88;;;0.70;;
68987;SDS011;56038;46.080;11.116;2024-03-06T17:27:42;1.17;;;1.00;;
68987;SDS011;56038;46.080;11.116;2024-03-06T17:32:46;1.15;;;0.70;;
68987;SDS011;56038;46.080;11.116;2024-03-06T17:37:48;0.70;;;0.70;;
68987;SDS011;56038;46.080;11.116;2024-03-06T17:42:50;0.88;;;0.70;;
68987;SDS011;56038;46.080;11.116;2024-03-06T17:47:53;0.70;;;0.70;;
68987;SDS011;56038;46.080;11.116;2024-03-06T17:52:55;1.40;;;0.80;;
68987;SDS011;56038;46.080;11.116;2024-03-06T17:57:57;1.38;;;0.82;;
68987;SDS011;56038;46.080;11.116;2024-03-06T18:03:01;1.10;;;0.60;;
68987;SDS011;56038;46.080;11.116;2024-03-06T18:08:04;1.33;;;0.80;;
68987;SDS011;56038;46.080;11.116;2024-03-06T18:13:06;1.92;;;1.30;;
68987;SDS011;56038;46.080;11.116;2024-03-06T18:18:09;1.40;;;0.90;;
68987;SDS011;56038;46.080;11.116;2024-03-06T18:23:10;1.27;;;1.02;;
68987;SDS011;56038;46.080;11.116;2024-03-06T18:28:12;5.13;;;1.48;;
68987;SDS011;56038;46.080;11.116;2024-03-06T18:33:16;2.05;;;0.93;;
68987;SDS011;56038;46.080;11.116;2024-03-06T18:38:17;0.50;;;0.50;;
68987;SDS011;56038;46.080;11.116;2024-03-06T18:43:19;0.82;;;0.70;;
68987;SDS011;56038;46.080;11.116;2024-03-06T18:48:22;0.65;;;0.63;;
68987;SDS011;56038;46.080;11.116;2024-03-06T18:53:24;0.70;;;0.70;;
68987;SDS011;56038;46.080;11.116;2024-03-06T18:58:27;0.60;;;0.60;;
68987;SDS011;56038;46.080;11.116;2024-03-06T19:03:30;0.70;;;0.65;;
68987;SDS011;56038;46.080;11.116;2024-03-06T19:08:32;0.63;;;0.50;;
68987;SDS011;56038;46.080;11.116;2024-03-06T19:13:34;0.40;;;0.40;;
68987;SDS011;56038;46.080;11.116;2024-03-06T19:18:37;0.73;;;0.60;;
68987;SDS011;56038;46.080;11.116;2024-03-06T19:23:39;0.43;;;0.40;;
68987;SDS011;56038;46.080;11.116;2024-03-06T19:28:41;0.40;;;0.40;;
68987;SDS011;56038;46.080;11.116;2024-03-06T19:33:44;1.27;;;0.60;;
68987;SDS011;56038;46.080;11.116;2024-03-06T19:38:46;1.48;;;1.10;;
68987;SDS011;56038;46.080;11.116;2024-03-06T19:43:48;0.95;;;0.80;;
68987;SDS011;56038;46.080;11.116;2024-03-06T19:48:51;0.75;;;0.73;;
68987;SDS011;56038;46.080;11.116;2024-03-06T19:53:52;2.53;;;0.90;;
68987;SDS011;56038;46.080;11.116;2024-03-06T19:58:55;1.13;;;0.80;;
68987;SDS011;56038;46.080;11.116;2024-03-06T20:03:59;0.40;;;0.32;;
68987;SDS011;56038;46.080;11.116;2024-03-06T20:09:01;0.45;;;0.45;;
68987;SDS011;56038;46.080;11.116;2024-03-06T20:14:04;0.80;;;0.50;;
68987;SDS011;56038;46.080;11.116;2024-03-06T20:19:07;0.60;;;0.60;;
68987;SDS011;56038;46.080;11.116;2024-03-06T20:24:09;0.70;;;0.70;;
68987;SDS011;56038;46.080;11.116;2024-03-06T20:29:11;0.60;;;0.60;;
68987;SDS011;56038;46.080;11.116;2024-03-06T20:34:14;0.73;;;0.70;;
68987;SDS011;56038;46.080;11.116;2024-03-06T20:39:16;0.68;;;0.60;;
68987;SDS011;56038;46.080;11.116;2024-03-06T20:44:18;1.67;;;1.02;;
68987;SDS011;56038;46.080;11.116;2024-03-06T20:49:21;1.00;;;0.75;;
68987;SDS011;56038;46.080;11.116;2024-03-06T20:54:23;1.23;;;0.98;;
68987;SDS011;56038;46.080;11.116;2024-03-06T20:59:25;0.98;;;0.95;;
68987;SDS011;56038;46.080;11.116;2024-03-06T21:04:28;1.02;;;0.85;;
68987;SDS011;56038;46.080;11.116;2024-03-06T21:09:30;0.82;;;0.82;;
68987;SDS011;56038;46.080;11.116;2024-03-06T21:14:32;0.70;;;0.70;;
68987;SDS011;56038;46.080;11.116;2024-03-06T21:19:35;2.42;;;1.45;;
68987;SDS011;56038;46.080;11.116;2024-03-06T21:24:37;3.13;;;2.30;;
68987;SDS011;56038;46.080;11.116;2024-03-06T21:29:39;2.50;;;1.80;;
68987;SDS011;56038;46.080;11.116;2024-03-06T21:34:42;2.50;;;2.00;;
68987;SDS011;56038;46.080;11.116;2024-03-06T21:39:45;3.25;;;2.10;;
68987;SDS011;56038;46.080;11.116;2024-03-06T21:44:47;2.08;;;1.92;;
68987;SDS011;56038;46.080;11.116;2024-03-06T21:49:50;2.97;;;2.47;;
68987;SDS011;56038;46.080;11.116;2024-03-06T21:54:52;1.65;;;1.45;;
68987;SDS011;56038;46.080;11.116;2024-03-06T21:59:53;1.92;;;1.70;;
68987;SDS011;56038;46.080;11.116;2024-03-06T22:04:57;1.85;;;1.75;;
68987;SDS011;56038;46.080;11.116;2024-03-06T22:09:59;3.72;;;2.90;;
68987;SDS011;56038;46.080;11.116;2024-03-06T22:15:02;3.92;;;2.65;;
68987;SDS011;56038;46.080;11.116;2024-03-06T22:20:07;2.53;;;2.33;;
68987;SDS011;56038;46.080;11.116;2024-03-06T22:25:09;2.25;;;2.05;;
68987;SDS011;56038;46.080;11.116;2024-03-06T22:30:11;3.38;;;2.47;;
68987;SDS011;56038;46.080;11.116;2024-03-06T22:35:15;3.35;;;2.47;;
68987;SDS011;56038;46.080;11.116;2024-03-06T22:40:17;3.40;;;2.83;;
68987;SDS011;56038;46.080;11.116;2024-03-06T22:45:18;3.13;;;2.83;;
68987;SDS011;56038;46.080;11.116;2024-03-06T22:50:22;5.30;;;2.90;;
68987;SDS011;56038;46.080;11.116;2024-03-06T22:55:23;3.65;;;2.47;;
68987;SDS011;56038;46.080;11.116;2024-03-06T23:00:25;3.05;;;2.22;;
68987;SDS011;56038;46.080;11.116;2024-03-06T23:05:31;3.22;;;2.60;;
68987;SDS011;56038;46.080;11.116;2024-03-06T23:10:33;2.88;;;2.25;;
68987;SDS011;56038;46.080;11.116;2024-03-06T23:15:35;3.50;;;2.90;;
68987;SDS011;56038;46.080;11.116;2024-03-06T23:20:38;2.25;;;2.05;;
68987;SDS011;56038;46.080;11.116;2024-03-06T23:25:40;2.00;;;1.65;;
68987;SDS011;56038;46.080;11.116;2024-03-06T23:30:42;5.28;;;2.85;;
68987;SDS011;56038;46.080;11.116;2024-03-06T23:35:46;2.30;;;2.10;;
68987;SDS011;56038;46.080;11.116;2024-03-06T23:40:48;3.05;;;2.22;;
68987;SDS011;56038;46.080;11.116;2024-03-06T23:45:49;2.20;;;2.00;;
68987;SDS011;56038;46.080;11.116;2024-03-06T23:50:53;2.05;;;1.85;;
68987;SDS011;56038;46.080;11.116;2024-03-06T23:55:54;1.65;;;1.55;;
